createdAt,value
2022-10-22T00:01:30.586Z,22.53
2022-10-22T00:03:58.956Z,22.52
2022-10-22T00:06:28.774Z,22.53
2022-10-22T00:08:57.274Z,22.52
2022-10-22T00:11:26.276Z,22.51
2022-10-22T00:13:54.721Z,22.51
2022-10-22T00:16:23.111Z,22.52
2022-10-22T00:18:52.340Z,22.52
2022-10-22T00:21:20.756Z,22.51
2022-10-22T00:23:50.625Z,22.48
2022-10-22T00:26:20.230Z,22.51
2022-10-22T00:28:48.674Z,22.51
2022-10-22T00:31:19.085Z,22.51
2022-10-22T00:33:49.572Z,22.51
2022-10-22T00:36:17.991Z,22.51
2022-10-22T00:38:46.401Z,22.52
2022-10-22T00:41:16.783Z,22.51
2022-10-22T00:43:56.209Z,22.50
2022-10-22T00:46:24.905Z,22.50
2022-10-22T00:48:54.027Z,22.51
2022-10-22T00:51:25.216Z,22.50
2022-10-22T00:53:57.504Z,22.50
2022-10-22T00:56:27.360Z,22.50
2022-10-22T00:59:00.063Z,22.50
2022-10-22T01:01:31.380Z,22.50
2022-10-22T01:04:01.925Z,22.50
2022-10-22T01:06:33.343Z,22.49
2022-10-22T01:09:17.915Z,22.49
2022-10-22T01:11:58.424Z,22.49
2022-10-22T01:14:37.871Z,22.50
2022-10-22T01:17:11.252Z,22.49
2022-10-22T01:19:58.575Z,22.49
2022-10-22T01:22:33.419Z,22.50
2022-10-22T01:25:12.535Z,22.50
2022-10-22T01:27:56.705Z,22.50
2022-10-22T01:30:27.130Z,22.49
2022-10-22T01:33:00.285Z,22.48
2022-10-22T01:38:05.423Z,22.48
2022-10-22T01:40:35.056Z,22.48
2022-10-22T01:43:05.582Z,22.48
2022-10-22T01:45:37.797Z,22.49
2022-10-22T01:48:15.920Z,22.48
2022-10-22T01:51:20.005Z,22.48
2022-10-22T01:53:54.884Z,22.48
2022-10-22T01:56:36.126Z,22.46
2022-10-22T01:59:10.280Z,22.48
2022-10-22T02:01:47.453Z,22.47
2022-10-22T02:04:21.331Z,22.48
2022-10-22T02:06:52.809Z,22.46
2022-10-22T02:09:23.977Z,22.47
2022-10-22T02:11:53.516Z,22.47
2022-10-22T02:14:22.677Z,22.45
2022-10-22T02:16:52.686Z,22.46
2022-10-22T02:19:26.068Z,22.46
2022-10-22T02:21:55.593Z,22.47
2022-10-22T02:24:25.174Z,22.46
2022-10-22T02:27:00.094Z,22.47
2022-10-22T02:29:33.950Z,22.46
2022-10-22T02:32:07.605Z,22.47
2022-10-22T02:34:36.160Z,22.47
2022-10-22T02:37:05.538Z,22.46
2022-10-22T02:39:34.879Z,22.46
2022-10-22T02:42:03.809Z,22.47
2022-10-22T02:44:32.287Z,22.47
2022-10-22T02:47:01.433Z,22.45
2022-10-22T02:49:31.284Z,22.46
2022-10-22T02:51:59.748Z,22.46
2022-10-22T02:54:28.265Z,22.46
2022-10-22T02:56:56.833Z,22.47
2022-10-22T02:59:25.187Z,22.46
2022-10-22T03:01:53.684Z,22.47
2022-10-22T03:04:22.113Z,22.47
2022-10-22T03:06:51.950Z,22.47
2022-10-22T03:09:22.750Z,22.46
2022-10-22T03:11:53.780Z,22.47
2022-10-22T03:14:22.472Z,22.47
2022-10-22T03:16:50.958Z,22.47
2022-10-22T03:19:19.392Z,22.47
2022-10-22T03:21:51.613Z,22.46
2022-10-22T03:24:24.627Z,22.46
2022-10-22T03:26:53.836Z,22.45
2022-10-22T03:29:24.742Z,22.45
2022-10-22T03:31:53.618Z,22.46
2022-10-22T03:34:23.192Z,22.46
2022-10-22T03:36:52.979Z,22.45
2022-10-22T03:39:23.481Z,22.45
2022-10-22T03:41:53.311Z,22.45
2022-10-22T03:44:23.238Z,22.45
2022-10-22T03:46:51.666Z,22.45
2022-10-22T03:49:20.226Z,22.44
2022-10-22T03:51:48.666Z,22.45
2022-10-22T03:54:17.581Z,22.43
2022-10-22T03:56:47.383Z,22.44
2022-10-22T03:59:16.092Z,22.45
2022-10-22T04:01:44.525Z,22.45
2022-10-22T04:04:12.921Z,22.45
2022-10-22T04:06:41.326Z,22.44
2022-10-22T04:09:09.756Z,22.45
2022-10-22T04:11:38.198Z,22.46
2022-10-22T04:14:08.099Z,22.46
2022-10-22T04:16:36.482Z,22.45
2022-10-22T04:19:04.905Z,22.46
2022-10-22T04:21:33.741Z,22.47
2022-10-22T04:24:02.801Z,22.46
2022-10-22T04:26:31.207Z,22.46
2022-10-22T04:28:59.651Z,22.46
2022-10-22T04:31:29.614Z,22.46
2022-10-22T04:34:00.623Z,22.46
2022-10-22T04:36:30.136Z,22.45
2022-10-22T04:39:00.448Z,22.46
2022-10-22T04:41:31.213Z,22.45
2022-10-22T04:44:00.951Z,22.45
2022-10-22T04:46:33.210Z,22.46
2022-10-22T04:49:03.712Z,22.45
2022-10-22T04:51:32.806Z,22.45
2022-10-22T04:54:01.233Z,22.45
2022-10-22T04:56:31.062Z,22.46
2022-10-22T04:59:01.872Z,22.46
2022-10-22T05:01:35.796Z,22.45
2022-10-22T05:04:08.573Z,22.46
2022-10-22T05:06:37.906Z,22.45
2022-10-22T05:09:08.262Z,22.46
2022-10-22T05:11:38.492Z,22.45
2022-10-22T05:14:07.742Z,22.45
2022-10-22T05:16:38.286Z,22.45
2022-10-22T05:19:07.533Z,22.46
2022-10-22T05:21:36.640Z,22.46
2022-10-22T05:24:05.403Z,22.46
2022-10-22T05:26:33.843Z,22.45
2022-10-22T05:29:02.225Z,22.46
2022-10-22T05:31:30.626Z,22.46
2022-10-22T05:34:00.403Z,22.45
2022-10-22T05:36:29.233Z,22.44
2022-10-22T05:38:58.530Z,22.45
2022-10-22T05:41:28.247Z,22.44
2022-10-22T05:43:57.841Z,22.44
2022-10-22T05:46:28.717Z,22.45
2022-10-22T05:48:59.034Z,22.45
2022-10-22T05:51:31.222Z,22.45
2022-10-22T05:54:01.613Z,22.46
2022-10-22T05:56:32.505Z,22.44
2022-10-22T06:01:36.189Z,22.45
2022-10-22T06:04:08.000Z,22.45
2022-10-22T06:06:40.344Z,22.44
2022-10-22T06:09:14.606Z,22.46
2022-10-22T06:11:43.089Z,22.45
2022-10-22T06:14:12.067Z,22.46
2022-10-22T06:16:40.871Z,22.45
2022-10-22T06:19:10.554Z,22.44
2022-10-22T06:21:40.854Z,22.45
2022-10-22T06:24:11.170Z,22.44
2022-10-22T06:26:40.040Z,22.44
2022-10-22T06:29:08.947Z,22.44
2022-10-22T06:31:37.824Z,22.45
2022-10-22T06:34:07.396Z,22.44
2022-10-22T06:36:36.122Z,22.45
2022-10-22T06:39:06.290Z,22.43
2022-10-22T06:41:34.726Z,22.43
2022-10-22T06:44:03.224Z,22.44
2022-10-22T06:46:31.798Z,22.44
2022-10-22T06:49:02.405Z,22.45
2022-10-22T06:51:31.038Z,22.44
2022-10-22T06:54:00.290Z,22.44
2022-10-22T06:56:30.169Z,22.44
2022-10-22T06:58:59.949Z,22.44
2022-10-22T07:01:30.063Z,22.44
2022-10-22T07:03:59.008Z,22.44
2022-10-22T07:06:29.892Z,22.44
2022-10-22T07:09:00.165Z,22.44
2022-10-22T07:11:38.655Z,22.44
2022-10-22T07:14:07.310Z,22.43
2022-10-22T07:16:35.868Z,22.43
2022-10-22T07:19:05.288Z,22.44
2022-10-22T07:21:33.859Z,22.45
2022-10-22T07:24:02.332Z,22.43
2022-10-22T07:26:32.677Z,22.44
2022-10-22T07:29:02.149Z,22.43
2022-10-22T07:31:30.805Z,22.43
2022-10-22T07:33:59.454Z,22.43
2022-10-22T07:36:27.915Z,22.43
2022-10-22T07:38:58.391Z,22.43
2022-10-22T07:41:27.916Z,22.43
2022-10-22T07:43:58.319Z,22.43
2022-10-22T07:46:27.274Z,22.43
2022-10-22T07:48:56.220Z,22.41
2022-10-22T07:51:24.765Z,22.43
2022-10-22T07:53:53.289Z,22.44
2022-10-22T07:56:21.938Z,22.43
2022-10-22T07:58:50.429Z,22.43
2022-10-22T08:01:20.246Z,22.42
2022-10-22T08:03:48.820Z,22.43
2022-10-22T08:06:17.693Z,22.43
2022-10-22T08:08:46.766Z,22.44
2022-10-22T08:11:15.496Z,22.44
2022-10-22T08:13:45.583Z,22.45
2022-10-22T08:16:15.479Z,22.44
2022-10-22T08:18:45.273Z,22.44
2022-10-22T08:21:13.987Z,22.43
2022-10-22T08:23:42.613Z,22.44
2022-10-22T08:26:11.395Z,22.44
2022-10-22T08:28:40.120Z,22.44
2022-10-22T08:31:09.445Z,22.43
2022-10-22T08:33:39.258Z,22.44
2022-10-22T08:36:09.977Z,22.44
2022-10-22T08:38:38.389Z,22.43
2022-10-22T08:41:11.136Z,22.43
2022-10-22T08:44:11.759Z,22.43
2022-10-22T08:46:53.361Z,22.43
2022-10-22T08:49:24.925Z,22.42
2022-10-22T08:51:55.894Z,22.42
2022-10-22T08:54:32.792Z,22.43
2022-10-22T08:57:17.716Z,22.42
2022-10-22T08:59:52.085Z,22.39
2022-10-22T09:02:34.653Z,22.37
2022-10-22T09:05:16.946Z,22.36
2022-10-22T09:07:50.136Z,22.34
2022-10-22T09:10:20.308Z,22.32
2022-10-22T09:12:49.364Z,22.31
2022-10-22T09:15:19.534Z,22.30
2022-10-22T09:18:02.221Z,22.29
2022-10-22T09:20:39.197Z,22.27
2022-10-22T09:23:22.849Z,22.27
2022-10-22T09:25:53.099Z,22.27
2022-10-22T09:28:22.145Z,22.27
2022-10-22T09:30:50.899Z,22.29
2022-10-22T09:33:24.020Z,22.29
2022-10-22T09:35:55.752Z,22.31
2022-10-22T09:38:27.538Z,22.32
2022-10-22T09:40:58.242Z,22.33
2022-10-22T09:43:27.029Z,22.35
2022-10-22T09:46:00.278Z,22.34
2022-10-22T09:48:35.072Z,22.35
2022-10-22T09:51:07.883Z,22.32
2022-10-22T09:53:44.603Z,22.33
2022-10-22T09:56:22.311Z,22.34
2022-10-22T09:58:52.139Z,22.33
2022-10-22T10:01:24.057Z,22.35
2022-10-22T10:03:52.572Z,22.34
2022-10-22T10:06:22.989Z,22.34
2022-10-22T10:08:52.994Z,22.34
2022-10-22T10:11:29.616Z,22.36
2022-10-22T10:14:08.620Z,22.35
2022-10-22T10:16:49.859Z,22.36
2022-10-22T10:19:31.422Z,22.37
2022-10-22T10:22:09.127Z,22.37
2022-10-22T10:25:00.047Z,22.38
2022-10-22T10:27:34.596Z,22.38
2022-10-22T10:30:06.481Z,22.39
2022-10-22T10:32:52.861Z,22.40
2022-10-22T10:35:26.415Z,22.40
2022-10-22T10:38:09.371Z,22.39
2022-10-22T10:40:46.569Z,22.40
2022-10-22T10:43:20.182Z,22.40
2022-10-22T10:46:00.095Z,22.39
2022-10-22T10:48:40.495Z,22.41
2022-10-22T10:51:24.348Z,22.40
2022-10-22T10:54:08.816Z,22.41
2022-10-22T10:56:42.778Z,22.41
2022-10-22T10:59:23.093Z,22.43
2022-10-22T11:02:10.694Z,22.42
2022-10-22T11:05:08.729Z,22.42
2022-10-22T11:07:43.288Z,22.43
2022-10-22T11:10:23.899Z,22.44
2022-10-22T11:12:58.593Z,22.44
2022-10-22T11:15:30.648Z,22.44
2022-10-22T11:18:07.400Z,22.42
2022-10-22T11:20:45.969Z,22.43
2022-10-22T11:23:20.786Z,22.42
2022-10-22T11:25:51.459Z,22.43
2022-10-22T11:28:26.997Z,22.42
2022-10-22T11:31:01.076Z,22.41
2022-10-22T11:33:37.568Z,22.41
2022-10-22T11:36:08.616Z,22.42
2022-10-22T11:38:38.200Z,22.40
2022-10-22T11:41:11.798Z,22.40
2022-10-22T11:43:59.526Z,22.38
2022-10-22T11:46:36.248Z,22.40
2022-10-22T11:49:18.475Z,22.39
2022-10-22T11:51:47.268Z,22.40
2022-10-22T11:54:31.872Z,22.39
2022-10-22T11:57:20.335Z,22.40
2022-10-22T11:59:53.237Z,22.38
2022-10-22T12:02:42.034Z,22.39
2022-10-22T12:05:33.847Z,22.39
2022-10-22T12:08:07.275Z,22.39
2022-10-22T12:10:49.451Z,22.39
2022-10-22T12:13:23.211Z,22.39
2022-10-22T12:15:57.571Z,22.40
2022-10-22T12:18:28.563Z,22.40
2022-10-22T12:20:56.989Z,22.40
2022-10-22T12:23:30.016Z,22.40
2022-10-22T12:25:59.084Z,22.39
2022-10-22T12:28:27.785Z,22.39
2022-10-22T12:31:00.509Z,22.39
2022-10-22T12:33:32.669Z,22.39
2022-10-22T12:36:04.043Z,22.38
2022-10-22T12:38:32.456Z,22.39
2022-10-22T12:41:00.851Z,22.38
2022-10-22T12:43:32.433Z,22.38
2022-10-22T12:46:02.249Z,22.38
2022-10-22T12:48:34.335Z,22.37
2022-10-22T12:51:07.658Z,22.37
2022-10-22T12:53:38.082Z,22.37
2022-10-22T12:56:10.883Z,22.35
2022-10-22T12:58:41.817Z,22.35
2022-10-22T13:01:13.550Z,22.37
2022-10-22T13:03:44.709Z,22.35
2022-10-22T13:06:14.604Z,22.37
2022-10-22T13:08:43.015Z,22.36
2022-10-22T13:11:12.780Z,22.37
2022-10-22T13:13:45.568Z,22.38
2022-10-22T13:16:21.666Z,22.36
2022-10-22T13:18:50.131Z,22.37
2022-10-22T13:21:34.081Z,22.37
2022-10-22T13:24:04.109Z,22.37
2022-10-22T13:26:35.253Z,22.38
2022-10-22T13:29:10.870Z,22.38
2022-10-22T13:31:47.002Z,22.39
2022-10-22T13:34:18.787Z,22.37
2022-10-22T13:36:47.296Z,22.38
2022-10-22T13:39:18.324Z,22.37
2022-10-22T13:41:46.870Z,22.37
2022-10-22T13:44:15.355Z,22.37
2022-10-22T13:46:45.741Z,22.37
2022-10-22T13:49:17.580Z,22.35
2022-10-22T13:51:46.729Z,22.37
2022-10-22T13:54:19.982Z,22.35
2022-10-22T13:56:48.444Z,22.37
2022-10-22T13:59:19.760Z,22.34
2022-10-22T14:01:53.165Z,22.33
2022-10-22T14:04:21.618Z,22.35
2022-10-22T14:06:50.167Z,22.33
2022-10-22T14:09:19.112Z,22.32
2022-10-22T14:11:47.580Z,22.33
2022-10-22T14:14:17.266Z,22.33
2022-10-22T14:16:45.967Z,22.32
2022-10-22T14:19:18.503Z,22.32
2022-10-22T14:21:47.059Z,22.33
2022-10-22T14:24:15.519Z,22.32
2022-10-22T14:26:43.950Z,22.31
2022-10-22T14:29:12.412Z,22.32
2022-10-22T14:31:43.117Z,22.35
2022-10-22T14:34:14.176Z,22.32
2022-10-22T14:36:44.592Z,22.32
2022-10-22T14:39:13.137Z,22.31
2022-10-22T14:41:42.145Z,22.31
2022-10-22T14:44:13.952Z,22.30
2022-10-22T14:46:44.089Z,22.30
2022-10-22T14:49:12.830Z,22.30
2022-10-22T14:51:41.265Z,22.30
2022-10-22T14:54:11.069Z,22.28
2022-10-22T14:56:39.548Z,22.28
2022-10-22T14:59:08.028Z,22.27
2022-10-22T15:01:36.569Z,22.26
2022-10-22T15:04:05.241Z,22.26
2022-10-22T15:06:33.735Z,22.25
2022-10-22T15:09:02.380Z,22.26
2022-10-22T15:11:32.329Z,22.25
2022-10-22T15:14:00.789Z,22.24
2022-10-22T15:16:29.295Z,22.25
2022-10-22T15:18:59.704Z,22.26
2022-10-22T15:21:28.548Z,22.25
2022-10-22T15:23:57.013Z,22.24
2022-10-22T15:26:25.638Z,22.24
2022-10-22T15:28:55.600Z,22.23
2022-10-22T15:31:49.260Z,22.22
2022-10-22T15:34:24.828Z,22.21
2022-10-22T15:36:55.827Z,22.21
2022-10-22T15:39:24.322Z,22.20
2022-10-22T15:41:53.339Z,22.21
2022-10-22T15:44:24.881Z,22.21
2022-10-22T15:46:54.745Z,22.20
2022-10-22T15:49:23.960Z,22.19
2022-10-22T15:51:52.821Z,22.19
2022-10-22T15:54:24.073Z,22.21
2022-10-22T15:56:52.513Z,22.23
2022-10-22T15:59:21.094Z,22.23
2022-10-22T16:01:51.113Z,22.24
2022-10-22T16:04:19.540Z,22.25
2022-10-22T16:06:49.431Z,22.28
2022-10-22T16:09:20.375Z,22.27
2022-10-22T16:11:49.667Z,22.29
2022-10-22T16:14:20.759Z,22.29
2022-10-22T16:16:52.646Z,22.30
2022-10-22T16:19:22.776Z,22.29
2022-10-22T16:21:52.409Z,22.29
2022-10-22T16:24:21.792Z,22.29
2022-10-22T16:26:50.407Z,22.30
2022-10-22T16:29:18.772Z,22.30
2022-10-22T16:31:47.273Z,22.31
2022-10-22T16:34:17.055Z,22.31
2022-10-22T16:36:45.493Z,22.32
2022-10-22T16:39:13.982Z,22.31
2022-10-22T16:41:42.398Z,22.33
2022-10-22T16:44:12.271Z,22.30
2022-10-22T16:46:40.719Z,22.29
2022-10-22T16:49:09.417Z,22.28
2022-10-22T16:51:40.049Z,22.28
2022-10-22T16:54:11.426Z,22.29
2022-10-22T16:56:41.127Z,22.29
2022-10-22T16:59:09.595Z,22.30
2022-10-22T17:01:40.854Z,22.30
2022-10-22T17:04:10.363Z,22.32
2022-10-22T17:06:40.177Z,22.32
2022-10-22T17:09:08.761Z,22.31
2022-10-22T17:11:40.172Z,22.31
2022-10-22T17:14:11.187Z,22.37
2022-10-22T17:16:39.677Z,22.37
2022-10-22T17:19:08.142Z,22.32
2022-10-22T17:21:36.612Z,22.30
2022-10-22T17:24:06.877Z,22.27
2022-10-22T17:26:37.272Z,22.28
2022-10-22T17:29:05.860Z,22.29
2022-10-22T17:31:37.273Z,22.28
2022-10-22T17:34:08.034Z,22.30
2022-10-22T17:36:37.350Z,22.30
2022-10-22T17:39:08.525Z,22.31
2022-10-22T17:41:37.988Z,22.30
2022-10-22T17:44:09.044Z,22.31
2022-10-22T17:46:38.795Z,22.32
2022-10-22T17:49:13.171Z,22.30
2022-10-22T17:51:41.706Z,22.32
2022-10-22T17:54:11.674Z,22.32
2022-10-22T17:56:40.540Z,22.33
2022-10-22T17:59:09.665Z,22.32
2022-10-22T18:01:43.320Z,22.32
2022-10-22T18:04:15.157Z,22.32
2022-10-22T18:06:43.528Z,22.34
2022-10-22T18:09:18.317Z,22.32
2022-10-22T18:11:48.242Z,22.33
2022-10-22T18:14:17.814Z,22.33
2022-10-22T18:16:47.089Z,22.33
2022-10-22T18:19:18.148Z,22.33
2022-10-22T18:21:47.054Z,22.33
2022-10-22T18:24:17.560Z,22.32
2022-10-22T18:26:46.161Z,22.32
2022-10-22T18:29:16.725Z,22.34
2022-10-22T18:31:45.582Z,22.35
2022-10-22T18:34:14.099Z,22.33
2022-10-22T18:36:43.262Z,22.33
2022-10-22T18:39:13.812Z,22.34
2022-10-22T18:41:44.253Z,22.33
2022-10-22T18:44:14.753Z,22.32
2022-10-22T18:46:43.546Z,22.32
2022-10-22T18:49:18.081Z,22.31
2022-10-22T18:51:48.660Z,22.31
2022-10-22T18:54:24.857Z,22.31
2022-10-22T18:56:59.327Z,22.31
2022-10-22T18:59:30.876Z,22.32
2022-10-22T19:01:59.944Z,22.32
2022-10-22T19:04:33.115Z,22.33
2022-10-22T19:07:01.834Z,22.34
2022-10-22T19:09:30.505Z,22.35
2022-10-22T19:12:00.501Z,22.35
2022-10-22T19:14:29.344Z,22.35
2022-10-22T19:16:57.783Z,22.35
2022-10-22T19:19:26.323Z,22.35
2022-10-22T19:21:56.469Z,22.35
2022-10-22T19:24:24.879Z,22.36
2022-10-22T19:26:53.727Z,22.37
2022-10-22T19:29:23.591Z,22.35
2022-10-22T19:31:52.088Z,22.37
2022-10-22T19:34:21.048Z,22.35
2022-10-22T19:36:51.578Z,22.35
2022-10-22T19:39:20.242Z,22.35
2022-10-22T19:41:48.869Z,22.35
2022-10-22T19:44:17.344Z,22.36
2022-10-22T19:46:47.152Z,22.36
2022-10-22T19:49:18.876Z,22.33
2022-10-22T19:51:50.440Z,22.34
2022-10-22T19:54:20.302Z,22.34
2022-10-22T19:56:50.048Z,22.35
2022-10-22T19:59:20.542Z,22.34
2022-10-22T20:01:50.365Z,22.34
2022-10-22T20:04:19.520Z,22.35
2022-10-22T20:06:48.045Z,22.35
2022-10-22T20:09:16.528Z,22.37
2022-10-22T20:11:45.213Z,22.38
2022-10-22T20:14:14.612Z,22.37
2022-10-22T20:16:43.751Z,22.36
2022-10-22T20:19:16.738Z,22.36
2022-10-22T20:21:46.184Z,22.37
2022-10-22T20:24:14.781Z,22.37
2022-10-22T20:26:46.299Z,22.36
2022-10-22T20:29:15.949Z,22.35
2022-10-22T20:31:44.304Z,22.33
2022-10-22T20:34:14.858Z,22.35
2022-10-22T20:36:43.391Z,22.35
2022-10-22T20:39:13.977Z,22.36
2022-10-22T20:41:42.446Z,22.35
2022-10-22T20:44:15.157Z,22.34
2022-10-22T20:46:44.395Z,22.35
2022-10-22T20:49:16.005Z,22.35
2022-10-22T20:51:45.142Z,22.33
2022-10-22T20:54:15.129Z,22.34
2022-10-22T20:56:44.294Z,22.35
2022-10-22T20:59:13.067Z,22.32
2022-10-22T21:01:43.049Z,22.35
2022-10-22T21:04:11.954Z,22.31
2022-10-22T21:06:42.990Z,22.32
2022-10-22T21:09:12.753Z,22.32
2022-10-22T21:11:42.476Z,22.33
2022-10-22T21:14:12.418Z,22.32
2022-10-22T21:16:42.104Z,22.31
2022-10-22T21:19:10.789Z,22.32
2022-10-22T21:21:39.344Z,22.33
2022-10-22T21:24:09.648Z,22.33
2022-10-22T21:26:39.044Z,22.32
2022-10-22T21:29:07.746Z,22.35
2022-10-22T21:31:36.620Z,22.33
2022-10-22T21:34:05.156Z,22.32
2022-10-22T21:36:33.750Z,22.32
2022-10-22T21:39:03.022Z,22.33
2022-10-22T21:41:33.043Z,22.32
2022-10-22T21:44:01.413Z,22.31
2022-10-22T21:46:29.939Z,22.31
2022-10-22T21:49:01.335Z,22.32
2022-10-22T21:51:31.681Z,22.33
2022-10-22T21:54:00.245Z,22.32
2022-10-22T21:56:32.467Z,22.32
2022-10-22T21:59:02.998Z,22.31
2022-10-22T22:01:31.838Z,22.31
2022-10-22T22:04:00.616Z,22.32
2022-10-22T22:06:33.092Z,22.31
2022-10-22T22:09:03.046Z,22.32
2022-10-22T22:11:31.876Z,22.32
2022-10-22T22:14:02.512Z,22.31
2022-10-22T22:16:33.358Z,22.31
2022-10-22T22:21:40.097Z,22.31
2022-10-22T22:24:10.346Z,22.31
2022-10-22T22:26:39.022Z,22.31
2022-10-22T22:29:08.834Z,22.28
2022-10-22T22:31:38.269Z,22.31
2022-10-22T22:34:08.521Z,22.31
2022-10-22T22:36:38.659Z,22.30
2022-10-22T22:39:09.146Z,22.31
2022-10-22T22:41:37.502Z,22.30
2022-10-22T22:44:06.250Z,22.30
2022-10-22T22:46:36.093Z,22.30
2022-10-22T22:49:05.081Z,22.30
2022-10-22T22:51:33.568Z,22.29
2022-10-22T22:54:02.901Z,22.30
2022-10-22T22:56:34.174Z,22.29
2022-10-22T22:59:02.778Z,22.30
2022-10-22T23:01:33.143Z,22.30
2022-10-22T23:04:05.802Z,22.30
2022-10-22T23:06:36.125Z,22.30
2022-10-22T23:09:05.466Z,22.29
2022-10-22T23:11:34.380Z,22.29
2022-10-22T23:14:05.929Z,22.30
2022-10-22T23:16:36.636Z,22.30
2022-10-22T23:19:06.547Z,22.30
2022-10-22T23:21:37.789Z,22.30
2022-10-22T23:24:08.829Z,22.31
2022-10-22T23:26:39.499Z,22.30
2022-10-22T23:29:09.851Z,22.30
2022-10-22T23:31:38.805Z,22.30
2022-10-22T23:34:09.014Z,22.30
2022-10-22T23:36:38.842Z,22.30
2022-10-22T23:39:08.575Z,22.30
2022-10-22T23:41:37.443Z,22.30
2022-10-22T23:44:07.083Z,22.30
2022-10-22T23:46:38.384Z,22.31
2022-10-22T23:49:09.867Z,22.31
2022-10-22T23:51:39.340Z,22.29
2022-10-22T23:54:11.171Z,22.31
2022-10-22T23:56:39.575Z,22.31
2022-10-22T23:59:08.874Z,22.31
